createdAt,value
2018-04-12T00:00:26.223Z,38.00
2018-04-12T00:01:31.088Z,38.00
2018-04-12T00:02:35.864Z,38.00
2018-04-12T00:03:40.554Z,38.00
2018-04-12T00:04:45.532Z,38.00
2018-04-12T00:05:50.404Z,38.10
2018-04-12T00:06:55.210Z,38.00
2018-04-12T00:07:59.979Z,38.00
2018-04-12T00:09:04.689Z,38.00
2018-04-12T00:10:09.616Z,37.90
2018-04-12T00:11:14.329Z,38.00
2018-04-12T00:12:19.194Z,37.90
2018-04-12T00:13:23.892Z,38.00
2018-04-12T00:14:28.636Z,37.90
2018-04-12T00:15:33.535Z,37.90
2018-04-12T00:16:38.402Z,37.90
2018-04-12T00:17:43.274Z,37.90
2018-04-12T00:18:48.154Z,37.90
2018-04-12T00:19:53.015Z,37.90
2018-04-12T00:20:57.716Z,37.90
2018-04-12T00:22:02.456Z,37.90
2018-04-12T00:23:07.350Z,37.90
2018-04-12T00:24:12.825Z,37.90
2018-04-12T00:25:17.623Z,37.90
2018-04-12T00:26:22.443Z,37.90
2018-04-12T00:27:27.437Z,37.90
2018-04-12T00:28:32.292Z,37.90
2018-04-12T00:29:37.085Z,37.80
2018-04-12T00:30:42.056Z,37.80
2018-04-12T00:31:46.976Z,37.80
2018-04-12T00:32:51.730Z,37.80
2018-04-12T00:33:56.456Z,37.90
2018-04-12T00:35:01.397Z,37.80
2018-04-12T00:36:06.463Z,37.80
2018-04-12T00:37:11.323Z,37.90
2018-04-12T00:38:16.119Z,37.80
2018-04-12T00:39:21.024Z,37.80
2018-04-12T00:40:25.907Z,37.70
2018-04-12T00:41:30.720Z,37.80
2018-04-12T00:42:35.615Z,37.70
2018-04-12T00:43:40.393Z,37.70
2018-04-12T00:44:45.413Z,37.70
2018-04-12T00:45:50.264Z,37.70
2018-04-12T00:46:55.053Z,37.80
2018-04-12T00:48:00.035Z,37.70
2018-04-12T00:49:04.917Z,37.70
2018-04-12T00:50:09.865Z,37.70
2018-04-12T00:51:14.559Z,37.70
2018-04-12T00:52:19.358Z,37.70
2018-04-12T00:53:24.185Z,37.80
2018-04-12T00:54:29.015Z,37.70
2018-04-12T00:55:34.034Z,38.40
2018-04-12T00:56:38.705Z,37.70
2018-04-12T00:57:43.557Z,37.70
2018-04-12T00:58:48.266Z,37.70
2018-04-12T00:59:53.270Z,37.70
2018-04-12T01:00:58.174Z,37.70
2018-04-12T01:02:02.967Z,37.70
2018-04-12T01:03:07.848Z,37.70
2018-04-12T01:04:12.693Z,37.70
2018-04-12T01:05:17.689Z,37.70
2018-04-12T01:06:22.736Z,37.70
2018-04-12T01:07:27.417Z,37.70
2018-04-12T01:08:32.281Z,37.70
2018-04-12T01:09:37.411Z,37.60
2018-04-12T01:10:42.448Z,37.60
2018-04-12T01:11:47.299Z,37.60
2018-04-12T01:12:52.370Z,37.60
2018-04-12T01:13:57.378Z,37.60
2018-04-12T01:15:02.474Z,37.60
2018-04-12T01:16:07.355Z,37.60
2018-04-12T01:17:12.416Z,37.60
2018-04-12T01:18:17.286Z,37.60
2018-04-12T01:19:22.168Z,37.60
2018-04-12T01:20:27.066Z,37.60
2018-04-12T01:21:32.084Z,37.60
2018-04-12T01:22:37.144Z,37.60
2018-04-12T01:23:42.204Z,37.60
2018-04-12T01:24:47.087Z,37.60
2018-04-12T01:25:51.997Z,37.50
2018-04-12T01:26:57.015Z,37.60
2018-04-12T01:28:01.924Z,37.50
2018-04-12T01:29:06.740Z,37.50
2018-04-12T01:30:11.446Z,37.60
2018-04-12T01:31:16.130Z,37.60
2018-04-12T01:32:21.017Z,37.50
2018-04-12T01:33:25.829Z,37.50
2018-04-12T01:34:30.587Z,37.50
2018-04-12T01:35:35.437Z,37.50
2018-04-12T01:36:40.077Z,37.50
2018-04-12T01:37:44.780Z,37.50
2018-04-12T01:38:49.798Z,37.50
2018-04-12T01:39:54.486Z,37.50
2018-04-12T01:40:59.203Z,37.50
2018-04-12T01:42:03.906Z,37.60
2018-04-12T01:43:08.887Z,37.60
2018-04-12T01:44:13.835Z,37.50
2018-04-12T01:45:18.614Z,37.50
2018-04-12T01:46:23.421Z,37.50
2018-04-12T01:47:28.064Z,37.50
2018-04-12T01:48:32.900Z,37.50
2018-04-12T01:49:37.799Z,37.50
2018-04-12T01:50:42.624Z,37.50
2018-04-12T01:51:47.528Z,37.50
2018-04-12T01:52:52.306Z,37.50
2018-04-12T01:53:57.186Z,37.50
2018-04-12T01:55:01.998Z,37.50
2018-04-12T01:56:06.694Z,37.50
2018-04-12T01:57:11.536Z,37.50
2018-04-12T01:58:16.405Z,37.50
2018-04-12T01:59:21.331Z,37.50
2018-04-12T02:00:26.279Z,37.50
2018-04-12T02:01:31.185Z,37.50
2018-04-12T02:02:36.163Z,37.50
2018-04-12T02:03:40.902Z,37.50
2018-04-12T02:04:45.562Z,37.50
2018-04-12T02:05:50.260Z,37.50
2018-04-12T02:06:55.085Z,37.50
2018-04-12T02:07:59.841Z,37.50
2018-04-12T02:09:04.808Z,37.40
2018-04-12T02:10:09.763Z,37.40
2018-04-12T02:11:14.752Z,37.40
2018-04-12T02:12:19.664Z,37.50
2018-04-12T02:13:24.290Z,37.40
2018-04-12T02:14:29.077Z,37.40
2018-04-12T02:15:33.901Z,37.40
2018-04-12T02:16:38.818Z,38.10
2018-04-12T02:17:43.834Z,37.40
2018-04-12T02:18:48.529Z,37.50
2018-04-12T02:19:53.537Z,37.40
2018-04-12T02:20:58.400Z,37.40
2018-04-12T02:22:03.312Z,37.40
2018-04-12T02:23:08.279Z,37.40
2018-04-12T02:24:13.016Z,37.40
2018-04-12T02:25:17.912Z,37.40
2018-04-12T02:26:22.940Z,37.40
2018-04-12T02:27:27.788Z,37.40
2018-04-12T02:28:32.639Z,37.40
2018-04-12T02:29:37.493Z,37.40
2018-04-12T02:30:42.125Z,37.40
2018-04-12T02:31:46.746Z,37.40
2018-04-12T02:32:51.647Z,37.30
2018-04-12T02:33:56.460Z,37.40
2018-04-12T02:35:01.227Z,37.30
2018-04-12T02:36:06.144Z,37.40
2018-04-12T02:37:10.977Z,37.40
2018-04-12T02:38:15.976Z,37.40
2018-04-12T02:39:20.971Z,37.40
2018-04-12T02:40:25.863Z,37.40
2018-04-12T02:41:30.876Z,37.40
2018-04-12T02:42:35.645Z,37.40
2018-04-12T02:43:40.536Z,37.40
2018-04-12T02:44:45.451Z,37.30
2018-04-12T02:45:50.411Z,37.40
2018-04-12T02:46:55.307Z,37.40
2018-04-12T02:48:00.162Z,37.40
2018-04-12T02:49:05.062Z,37.40
2018-04-12T02:50:09.938Z,37.40
2018-04-12T02:51:14.788Z,37.40
2018-04-12T02:52:19.734Z,37.40
2018-04-12T02:53:24.562Z,37.40
2018-04-12T02:54:29.202Z,37.30
2018-04-12T02:55:34.013Z,37.30
2018-04-12T02:56:38.946Z,37.40
2018-04-12T02:57:43.732Z,37.30
2018-04-12T02:58:48.712Z,37.30
2018-04-12T02:59:53.360Z,37.40
2018-04-12T03:00:58.150Z,37.40
2018-04-12T03:02:02.946Z,37.40
2018-04-12T03:03:07.727Z,37.40
2018-04-12T03:04:12.663Z,37.40
2018-04-12T03:05:17.612Z,37.40
2018-04-12T03:06:22.216Z,37.40
2018-04-12T03:07:26.948Z,37.30
2018-04-12T03:08:31.551Z,37.40
2018-04-12T03:09:36.544Z,37.30
2018-04-12T03:10:41.436Z,37.20
2018-04-12T03:11:47.054Z,37.30
2018-04-12T03:12:52.068Z,37.40
2018-04-12T03:13:57.046Z,37.30
2018-04-12T03:15:01.883Z,37.30
2018-04-12T03:16:06.732Z,37.30
2018-04-12T03:17:11.554Z,37.20
2018-04-12T03:18:16.284Z,37.20
2018-04-12T03:19:21.210Z,37.30
2018-04-12T03:20:26.079Z,37.30
2018-04-12T03:21:30.959Z,37.30
2018-04-12T03:22:35.810Z,37.20
2018-04-12T03:23:40.543Z,37.30
2018-04-12T03:24:45.547Z,37.30
2018-04-12T03:25:50.428Z,37.20
2018-04-12T03:26:55.467Z,37.20
2018-04-12T03:28:00.385Z,37.20
2018-04-12T03:29:05.341Z,37.30
2018-04-12T03:30:10.028Z,37.30
2018-04-12T03:31:15.529Z,37.20
2018-04-12T03:32:20.370Z,37.20
2018-04-12T03:33:25.203Z,37.20
2018-04-12T03:34:30.019Z,37.30
2018-04-12T03:35:35.010Z,37.20
2018-04-12T03:36:39.812Z,37.20
2018-04-12T03:37:44.674Z,37.30
2018-04-12T03:38:49.368Z,37.20
2018-04-12T03:39:54.064Z,37.30
2018-04-12T03:40:58.773Z,37.20
2018-04-12T03:42:03.686Z,37.20
2018-04-12T03:43:08.520Z,37.20
2018-04-12T03:44:13.148Z,37.20
2018-04-12T03:45:18.055Z,37.20
2018-04-12T03:46:22.892Z,37.20
2018-04-12T03:47:27.531Z,37.20
2018-04-12T03:48:32.147Z,37.20
2018-04-12T03:49:36.962Z,37.20
2018-04-12T03:50:41.732Z,37.30
2018-04-12T03:51:46.535Z,37.20
2018-04-12T03:52:51.510Z,37.20
2018-04-12T03:53:56.249Z,37.20
2018-04-12T03:55:00.905Z,37.20
2018-04-12T03:56:05.523Z,37.20
2018-04-12T03:57:10.355Z,37.20
2018-04-12T03:58:15.309Z,37.20
2018-04-12T03:59:19.984Z,37.20
2018-04-12T04:00:24.903Z,37.20
2018-04-12T04:01:29.772Z,37.20
2018-04-12T04:02:34.632Z,37.20
2018-04-12T04:03:39.345Z,37.20
2018-04-12T04:04:44.076Z,37.20
2018-04-12T04:05:48.902Z,37.20
2018-04-12T04:06:53.823Z,37.20
2018-04-12T04:07:58.627Z,37.20
2018-04-12T04:09:03.355Z,37.20
2018-04-12T04:10:08.297Z,37.20
2018-04-12T04:11:13.247Z,37.20
2018-04-12T04:12:17.903Z,37.20
2018-04-12T04:13:22.733Z,37.20
2018-04-12T04:14:27.712Z,37.10
2018-04-12T04:15:32.360Z,37.20
2018-04-12T04:16:37.318Z,37.10
2018-04-12T04:17:41.944Z,37.20
2018-04-12T04:18:46.760Z,37.20
2018-04-12T04:19:51.570Z,37.20
2018-04-12T04:20:56.355Z,37.20
2018-04-12T04:22:01.025Z,37.10
2018-04-12T04:23:06.026Z,37.10
2018-04-12T04:24:10.998Z,37.20
2018-04-12T04:25:15.826Z,37.20
2018-04-12T04:26:20.781Z,37.20
2018-04-12T04:27:25.652Z,37.20
2018-04-12T04:28:30.531Z,37.30
2018-04-12T04:29:35.511Z,37.30
2018-04-12T04:30:40.530Z,37.40
2018-04-12T04:31:45.602Z,37.60
2018-04-12T04:32:50.524Z,37.60
2018-04-12T04:33:55.316Z,37.70
2018-04-12T04:35:00.067Z,38.30
2018-04-12T04:36:05.014Z,37.60
2018-04-12T04:37:09.910Z,37.70
2018-04-12T04:38:14.860Z,37.70
2018-04-12T04:39:19.603Z,37.70
2018-04-12T04:40:24.929Z,37.80
2018-04-12T04:41:29.826Z,37.70
2018-04-12T04:42:34.838Z,37.00
2018-04-12T04:43:39.614Z,36.60
2018-04-12T04:44:44.305Z,36.50
2018-04-12T04:45:49.035Z,36.40
2018-04-12T04:46:53.841Z,36.40
2018-04-12T04:47:58.557Z,36.40
2018-04-12T04:49:03.400Z,36.50
2018-04-12T04:50:08.357Z,36.50
2018-04-12T04:51:13.834Z,36.70
2018-04-12T04:52:18.706Z,36.90
2018-04-12T04:53:23.411Z,37.10
2018-04-12T04:54:28.117Z,37.30
2018-04-12T04:55:33.030Z,37.40
2018-04-12T04:56:37.769Z,37.50
2018-04-12T04:57:42.557Z,37.70
2018-04-12T04:58:47.310Z,37.70
2018-04-12T04:59:52.232Z,37.80
2018-04-12T05:00:57.175Z,37.90
2018-04-12T05:02:01.927Z,38.00
2018-04-12T05:03:06.849Z,38.10
2018-04-12T05:04:11.504Z,38.10
2018-04-12T05:05:16.428Z,38.20
2018-04-12T05:06:22.413Z,38.30
2018-04-12T05:07:27.275Z,38.40
2018-04-12T05:08:32.071Z,38.50
2018-04-12T05:09:37.247Z,38.70
2018-04-12T05:10:41.860Z,38.70
2018-04-12T05:11:46.624Z,38.80
2018-04-12T05:12:51.382Z,38.90
2018-04-12T05:13:56.244Z,38.90
2018-04-12T05:15:01.099Z,39.00
2018-04-12T05:16:06.019Z,39.00
2018-04-12T05:17:10.683Z,39.10
2018-04-12T05:18:15.416Z,39.10
2018-04-12T05:19:20.181Z,39.20
2018-04-12T05:20:25.004Z,39.20
2018-04-12T05:21:29.826Z,39.20
2018-04-12T05:22:34.833Z,39.30
2018-04-12T05:23:39.676Z,39.30
2018-04-12T05:24:44.317Z,39.40
2018-04-12T05:25:49.053Z,39.40
2018-04-12T05:26:54.024Z,39.40
2018-04-12T05:27:59.073Z,39.40
2018-04-12T05:29:04.068Z,39.40
2018-04-12T05:30:08.940Z,39.40
2018-04-12T05:31:14.046Z,39.50
2018-04-12T05:32:21.160Z,39.60
2018-04-12T05:33:26.276Z,39.60
2018-04-12T05:34:31.246Z,39.70
2018-04-12T05:35:36.243Z,39.70
2018-04-12T05:36:41.103Z,39.70
2018-04-12T05:37:45.851Z,39.80
2018-04-12T05:38:50.703Z,39.80
2018-04-12T05:39:55.522Z,39.80
2018-04-12T05:41:00.404Z,39.80
2018-04-12T05:42:05.266Z,39.80
2018-04-12T05:43:10.133Z,39.80
2018-04-12T05:44:14.868Z,39.80
2018-04-12T05:45:19.741Z,39.80
2018-04-12T05:46:25.567Z,39.80
2018-04-12T05:47:31.464Z,39.90
2018-04-12T05:48:36.278Z,39.80
2018-04-12T05:49:40.952Z,39.90
2018-04-12T05:50:45.705Z,39.80
2018-04-12T05:51:50.574Z,39.90
2018-04-12T05:52:55.360Z,39.80
2018-04-12T05:54:00.169Z,39.80
2018-04-12T05:55:05.183Z,39.80
2018-04-12T05:56:09.912Z,39.80
2018-04-12T05:57:14.913Z,39.80
2018-04-12T05:58:19.788Z,39.70
2018-04-12T05:59:24.703Z,39.70
2018-04-12T06:00:29.886Z,39.70
2018-04-12T06:01:34.795Z,39.70
2018-04-12T06:02:39.690Z,39.60
2018-04-12T06:03:44.573Z,39.60
2018-04-12T06:04:49.280Z,39.60
2018-04-12T06:05:53.954Z,39.70
2018-04-12T06:06:58.938Z,39.70
2018-04-12T06:08:03.789Z,39.70
2018-04-12T06:09:08.439Z,39.70
2018-04-12T06:10:13.236Z,40.50
2018-04-12T06:11:18.054Z,39.70
2018-04-12T06:12:22.783Z,39.70
2018-04-12T06:13:27.738Z,39.60
2018-04-12T06:14:32.370Z,39.70
2018-04-12T06:15:37.232Z,39.70
2018-04-12T06:16:41.891Z,39.80
2018-04-12T06:17:46.772Z,39.80
2018-04-12T06:18:51.485Z,39.90
2018-04-12T06:19:56.457Z,39.90
2018-04-12T06:21:01.407Z,39.80
2018-04-12T06:22:11.784Z,39.80
2018-04-12T06:23:22.995Z,39.70
2018-04-12T06:24:27.946Z,39.70
2018-04-12T06:25:33.663Z,39.70
2018-04-12T06:26:39.455Z,39.70
2018-04-12T06:27:45.160Z,39.80
2018-04-12T06:28:50.715Z,39.80
2018-04-12T06:29:55.643Z,39.90
2018-04-12T06:31:00.565Z,39.80
2018-04-12T06:32:05.550Z,39.90
2018-04-12T06:33:10.696Z,40.00
2018-04-12T06:34:15.752Z,40.00
2018-04-12T06:35:20.551Z,40.10
2018-04-12T06:36:25.502Z,40.10
2018-04-12T06:37:30.442Z,40.20
2018-04-12T06:38:35.482Z,40.30
2018-04-12T06:39:40.357Z,40.30
2018-04-12T06:40:45.159Z,40.30
2018-04-12T06:41:50.191Z,40.30
2018-04-12T06:42:55.311Z,40.30
2018-04-12T06:44:00.212Z,40.50
2018-04-12T06:45:05.048Z,40.50
2018-04-12T06:46:09.960Z,40.50
2018-04-12T06:47:15.018Z,40.50
2018-04-12T06:48:19.904Z,40.50
2018-04-12T06:49:24.823Z,40.50
2018-04-12T06:50:29.910Z,40.60
2018-04-12T06:51:34.714Z,40.60
2018-04-12T06:52:39.721Z,40.50
2018-04-12T06:53:44.551Z,40.60
2018-04-12T06:54:49.417Z,40.60
2018-04-12T06:55:54.310Z,40.70
2018-04-12T06:56:59.044Z,40.70
2018-04-12T06:58:03.779Z,40.70
2018-04-12T06:59:08.753Z,40.70
2018-04-12T07:00:13.471Z,40.70
2018-04-12T07:01:18.465Z,40.80
2018-04-12T07:02:23.305Z,40.80
2018-04-12T07:03:28.048Z,40.70
2018-04-12T07:04:33.028Z,40.80
2018-04-12T07:05:37.696Z,40.80
2018-04-12T07:06:42.387Z,40.90
2018-04-12T07:07:47.354Z,41.00
2018-04-12T07:08:52.028Z,41.00
2018-04-12T07:09:56.760Z,41.10
2018-04-12T07:11:01.660Z,41.00
2018-04-12T07:12:06.381Z,41.00
2018-04-12T07:13:11.267Z,41.10
2018-04-12T07:14:16.241Z,41.10
2018-04-12T07:15:21.279Z,41.10
2018-04-12T07:16:26.172Z,41.10
2018-04-12T07:17:30.900Z,41.20
2018-04-12T07:18:35.756Z,41.20
2018-04-12T07:19:40.682Z,41.20
2018-04-12T07:20:45.420Z,41.20
2018-04-12T07:21:50.055Z,41.30
2018-04-12T07:22:54.929Z,41.20
2018-04-12T07:23:59.697Z,41.20
2018-04-12T07:25:04.539Z,41.30
2018-04-12T07:26:09.516Z,41.40
2018-04-12T07:27:14.262Z,41.40
2018-04-12T07:28:19.092Z,41.40
2018-04-12T07:29:24.122Z,41.40
2018-04-12T07:30:28.969Z,41.30
2018-04-12T07:31:33.967Z,41.40
2018-04-12T07:32:38.917Z,41.40
2018-04-12T07:33:43.795Z,41.40
2018-04-12T07:34:48.553Z,41.40
2018-04-12T07:35:53.394Z,41.40
2018-04-12T07:36:58.093Z,41.40
2018-04-12T07:38:02.898Z,41.40
2018-04-12T07:39:07.801Z,41.50
2018-04-12T07:40:12.712Z,41.60
2018-04-12T07:41:17.611Z,41.50
2018-04-12T07:42:22.561Z,41.50
2018-04-12T07:43:27.296Z,41.50
2018-04-12T07:44:32.152Z,41.50
2018-04-12T07:45:36.811Z,41.60
2018-04-12T07:46:41.674Z,41.60
2018-04-12T07:47:46.613Z,41.60
2018-04-12T07:48:51.503Z,41.70
2018-04-12T07:49:56.244Z,41.60
2018-04-12T07:51:00.936Z,41.70
2018-04-12T07:52:05.737Z,41.60
2018-04-12T07:53:10.553Z,41.60
2018-04-12T07:54:15.347Z,41.80
2018-04-12T07:55:20.328Z,41.70
2018-04-12T07:56:25.059Z,41.70
2018-04-12T07:57:29.989Z,41.80
2018-04-12T07:58:34.944Z,41.80
2018-04-12T07:59:39.755Z,41.70
2018-04-12T08:00:44.481Z,42.40
2018-04-12T08:01:49.201Z,41.80
2018-04-12T08:02:54.017Z,41.70
2018-04-12T08:03:58.770Z,42.40
2018-04-12T08:05:03.601Z,41.80
2018-04-12T08:06:08.554Z,41.80
2018-04-12T08:07:13.420Z,41.80
2018-04-12T08:08:18.092Z,41.80
2018-04-12T08:09:22.943Z,41.80
2018-04-12T08:10:27.659Z,41.90
2018-04-12T08:11:32.507Z,41.90
2018-04-12T08:12:37.484Z,41.80
2018-04-12T08:13:42.349Z,41.80
2018-04-12T08:14:47.284Z,42.00
2018-04-12T08:15:51.989Z,42.00
2018-04-12T08:16:56.691Z,41.90
2018-04-12T08:18:01.535Z,41.90
2018-04-12T08:19:06.270Z,42.00
2018-04-12T08:20:11.281Z,41.90
2018-04-12T08:21:16.162Z,41.90
2018-04-12T08:22:21.142Z,41.90
2018-04-12T08:23:25.992Z,41.90
2018-04-12T08:24:30.901Z,42.00
2018-04-12T08:25:35.661Z,42.00
2018-04-12T08:26:40.557Z,42.10
2018-04-12T08:27:45.505Z,41.90
2018-04-12T08:28:50.314Z,42.00
2018-04-12T08:29:55.142Z,42.00
2018-04-12T08:31:00.002Z,42.10
2018-04-12T08:32:05.003Z,42.10
2018-04-12T08:33:09.877Z,42.00
2018-04-12T08:34:14.929Z,42.00
2018-04-12T08:35:19.657Z,42.00
2018-04-12T08:36:24.690Z,42.00
2018-04-12T08:37:29.335Z,42.10
2018-04-12T08:38:34.165Z,42.00
2018-04-12T08:39:39.014Z,42.10
2018-04-12T08:40:43.681Z,42.10
2018-04-12T08:41:48.322Z,42.00
2018-04-12T08:42:53.017Z,42.80
2018-04-12T08:43:57.857Z,42.10
2018-04-12T08:45:02.924Z,42.20
2018-04-12T08:46:07.765Z,42.20
2018-04-12T08:47:12.451Z,42.10
2018-04-12T08:48:20.339Z,42.10
2018-04-12T08:49:25.279Z,42.20
2018-04-12T08:50:30.111Z,42.10
2018-04-12T08:51:34.852Z,42.10
2018-04-12T08:52:39.764Z,42.10
2018-04-12T08:53:44.614Z,42.20
2018-04-12T08:54:49.802Z,42.10
2018-04-12T08:55:54.835Z,42.20
2018-04-12T08:56:59.856Z,42.10
2018-04-12T08:58:05.204Z,42.20
2018-04-12T08:59:10.457Z,42.20
2018-04-12T09:00:15.793Z,42.20
2018-04-12T09:01:20.928Z,42.20
2018-04-12T09:02:25.711Z,42.20
2018-04-12T09:03:30.857Z,42.20
2018-04-12T09:04:35.516Z,42.20
2018-04-12T09:05:40.493Z,42.30
2018-04-12T09:06:45.318Z,42.30
2018-04-12T09:07:50.012Z,42.20
2018-04-12T09:08:54.954Z,42.30
2018-04-12T09:10:00.036Z,42.20
2018-04-12T09:11:05.159Z,42.30
2018-04-12T09:12:10.137Z,42.30
2018-04-12T09:13:14.989Z,42.20
2018-04-12T09:14:19.933Z,42.30
2018-04-12T09:15:24.985Z,42.30
2018-04-12T09:16:29.920Z,42.30
2018-04-12T09:17:34.919Z,42.30
2018-04-12T09:18:39.856Z,42.40
2018-04-12T09:19:44.671Z,42.30
2018-04-12T09:20:49.552Z,42.30
2018-04-12T09:21:54.489Z,42.90
2018-04-12T09:22:59.433Z,42.30
2018-04-12T09:24:04.450Z,42.40
2018-04-12T09:25:09.386Z,42.40
2018-04-12T09:26:14.178Z,42.40
2018-04-12T09:27:19.109Z,42.30
2018-04-12T09:28:23.848Z,42.30
2018-04-12T09:29:28.519Z,42.30
2018-04-12T09:30:33.387Z,42.30
2018-04-12T09:31:38.247Z,42.40
2018-04-12T09:32:43.110Z,42.30
2018-04-12T09:33:48.008Z,42.40
2018-04-12T09:34:52.769Z,42.40
2018-04-12T09:35:57.670Z,42.40
2018-04-12T09:37:02.617Z,42.40
2018-04-12T09:38:07.400Z,42.40
2018-04-12T09:39:12.098Z,42.40
2018-04-12T09:40:16.912Z,42.40
2018-04-12T09:41:21.790Z,42.40
2018-04-12T09:42:26.465Z,42.40
2018-04-12T09:43:31.287Z,42.40
2018-04-12T09:44:36.050Z,42.50
2018-04-12T09:45:40.972Z,42.40
2018-04-12T09:46:45.864Z,42.50
2018-04-12T09:47:50.672Z,42.40
2018-04-12T09:48:55.461Z,42.50
2018-04-12T09:50:00.250Z,42.40
2018-04-12T09:51:05.123Z,42.50
2018-04-12T09:52:09.854Z,42.50
2018-04-12T09:53:14.738Z,42.50
2018-04-12T09:54:19.388Z,42.50
2018-04-12T09:55:24.244Z,42.50
2018-04-12T09:56:29.019Z,42.40
2018-04-12T09:57:33.934Z,42.50
2018-04-12T09:58:38.907Z,42.40
2018-04-12T09:59:43.907Z,42.40
2018-04-12T10:00:48.513Z,42.50
2018-04-12T10:01:53.468Z,42.50
2018-04-12T10:02:58.429Z,42.50
2018-04-12T10:04:03.538Z,42.50
2018-04-12T10:05:08.411Z,42.50
2018-04-12T10:06:13.219Z,42.40
2018-04-12T10:07:18.123Z,42.50
2018-04-12T10:08:22.958Z,42.50
2018-04-12T10:09:27.709Z,42.50
2018-04-12T10:10:32.571Z,42.50
2018-04-12T10:11:37.588Z,42.50
2018-04-12T10:12:42.578Z,42.50
2018-04-12T10:13:47.606Z,42.50
2018-04-12T10:14:52.436Z,42.60
2018-04-12T10:15:57.382Z,42.60
2018-04-12T10:17:02.297Z,42.60
2018-04-12T10:18:07.260Z,42.60
2018-04-12T10:19:12.305Z,42.60
2018-04-12T10:20:17.226Z,42.50
2018-04-12T10:21:22.652Z,42.50
2018-04-12T10:22:27.341Z,42.50
2018-04-12T10:23:32.076Z,42.60
2018-04-12T10:24:37.089Z,42.50
2018-04-12T10:25:42.012Z,42.60
2018-04-12T10:26:47.050Z,42.50
2018-04-12T10:27:52.097Z,42.60
2018-04-12T10:28:57.088Z,42.60
2018-04-12T10:30:02.046Z,42.60
2018-04-12T10:31:06.940Z,42.60
2018-04-12T10:32:12.000Z,42.60
2018-04-12T10:33:16.874Z,42.60
2018-04-12T10:34:21.688Z,42.60
2018-04-12T10:35:26.557Z,42.70
2018-04-12T10:36:31.550Z,42.70
2018-04-12T10:37:36.496Z,42.60
2018-04-12T10:38:41.299Z,42.70
2018-04-12T10:39:46.232Z,42.60
2018-04-12T10:40:51.121Z,42.60
2018-04-12T10:41:56.181Z,42.70
2018-04-12T10:43:01.171Z,42.60
2018-04-12T10:44:06.128Z,42.60
2018-04-12T10:45:10.928Z,42.70
2018-04-12T10:46:15.769Z,42.70
2018-04-12T10:47:20.735Z,42.60
2018-04-12T10:48:25.746Z,42.70
2018-04-12T10:49:30.772Z,42.60
2018-04-12T10:50:35.767Z,42.70
2018-04-12T10:51:40.774Z,42.60
2018-04-12T10:52:45.808Z,42.70
2018-04-12T10:53:50.520Z,42.70
2018-04-12T10:54:55.260Z,42.70
2018-04-12T10:56:00.166Z,42.70
2018-04-12T10:57:05.151Z,42.80
2018-04-12T10:58:10.000Z,42.80
2018-04-12T10:59:14.702Z,42.80
2018-04-12T11:00:19.700Z,42.80
2018-04-12T11:01:24.815Z,42.80
2018-04-12T11:02:29.736Z,42.80
2018-04-12T11:03:34.465Z,42.80
2018-04-12T11:04:39.197Z,42.90
2018-04-12T11:05:44.203Z,42.90
2018-04-12T11:06:49.012Z,42.80
2018-04-12T11:07:54.053Z,42.80
2018-04-12T11:08:58.754Z,42.80
2018-04-12T11:10:03.667Z,42.90
2018-04-12T11:11:08.538Z,42.90
2018-04-12T11:12:13.554Z,42.90
2018-04-12T11:13:18.427Z,42.90
2018-04-12T11:14:23.417Z,42.90
2018-04-12T11:15:28.342Z,43.00
2018-04-12T11:16:33.280Z,43.00
2018-04-12T11:17:38.134Z,42.90
2018-04-12T11:18:43.279Z,42.90
2018-04-12T11:19:48.190Z,42.90
2018-04-12T11:20:53.158Z,43.00
2018-04-12T11:21:58.190Z,43.00
2018-04-12T11:23:03.148Z,43.00
2018-04-12T11:24:07.912Z,43.00
2018-04-12T11:25:12.811Z,43.00
2018-04-12T11:26:17.708Z,43.00
2018-04-12T11:27:22.412Z,43.00
2018-04-12T11:28:27.308Z,43.00
2018-04-12T11:29:32.192Z,43.00
2018-04-12T11:30:37.089Z,43.00
2018-04-12T11:31:42.133Z,42.90
2018-04-12T11:32:47.053Z,43.00
2018-04-12T11:33:52.032Z,43.00
2018-04-12T11:34:56.827Z,43.00
2018-04-12T11:36:02.052Z,43.00
2018-04-12T11:37:06.903Z,43.00
2018-04-12T11:38:11.847Z,43.00
2018-04-12T11:39:16.820Z,43.00
2018-04-12T11:40:21.687Z,43.00
2018-04-12T11:41:26.658Z,42.90
2018-04-12T11:42:31.518Z,43.00
2018-04-12T11:43:36.582Z,43.00
2018-04-12T11:44:41.448Z,43.00
2018-04-12T11:45:46.435Z,43.00
2018-04-12T11:46:51.490Z,43.00
2018-04-12T11:47:56.410Z,43.00
2018-04-12T11:49:01.272Z,43.00
2018-04-12T11:50:06.146Z,42.90
2018-04-12T11:51:11.214Z,43.00
2018-04-12T11:52:16.404Z,43.00
2018-04-12T11:53:21.451Z,43.00
2018-04-12T11:54:26.102Z,43.00
2018-04-12T11:55:30.965Z,42.90
2018-04-12T11:56:35.702Z,43.00
2018-04-12T11:57:40.751Z,43.00
2018-04-12T11:58:45.634Z,43.00
2018-04-12T11:59:50.539Z,43.10
2018-04-12T12:00:55.343Z,43.00
2018-04-12T12:02:00.311Z,43.00
2018-04-12T12:03:05.292Z,43.00
2018-04-12T12:04:10.348Z,43.10
2018-04-12T12:05:15.476Z,43.00
2018-04-12T12:06:20.354Z,43.10
2018-04-12T12:07:25.250Z,43.00
2018-04-12T12:08:30.050Z,43.00
2018-04-12T12:09:34.854Z,43.10
2018-04-12T12:10:39.813Z,43.00
2018-04-12T12:11:44.631Z,43.00
2018-04-12T12:12:49.589Z,43.10
2018-04-12T12:13:54.343Z,43.10
2018-04-12T12:14:59.207Z,43.10
2018-04-12T12:16:04.149Z,43.10
2018-04-12T12:17:08.990Z,43.00
2018-04-12T12:18:13.852Z,43.10
2018-04-12T12:19:18.757Z,43.80
2018-04-12T12:20:23.514Z,43.10
2018-04-12T12:21:28.367Z,43.10
2018-04-12T12:22:33.385Z,43.10
2018-04-12T12:23:38.450Z,43.10
2018-04-12T12:24:43.363Z,43.10
2018-04-12T12:25:48.255Z,43.00
2018-04-12T12:26:53.303Z,43.00
2018-04-12T12:27:58.374Z,43.10
2018-04-12T12:29:03.157Z,43.10
2018-04-12T12:30:08.032Z,43.00
2018-04-12T12:31:12.871Z,43.00
2018-04-12T12:32:17.695Z,43.80
2018-04-12T12:33:22.507Z,43.10
2018-04-12T12:34:27.365Z,43.10
2018-04-12T12:35:32.132Z,43.10
2018-04-12T12:36:37.117Z,43.10
2018-04-12T12:37:41.989Z,43.10
2018-04-12T12:38:46.756Z,43.10
2018-04-12T12:39:51.745Z,43.00
2018-04-12T12:40:56.830Z,43.10
2018-04-12T12:42:01.688Z,43.20
2018-04-12T12:43:06.584Z,43.10
2018-04-12T12:44:11.604Z,43.10
2018-04-12T12:45:16.768Z,43.10
2018-04-12T12:46:21.762Z,43.10
2018-04-12T12:47:26.663Z,43.10
2018-04-12T12:48:31.646Z,43.10
2018-04-12T12:49:36.561Z,43.10
2018-04-12T12:50:41.521Z,43.10
2018-04-12T12:51:46.243Z,43.20
2018-04-12T12:52:51.113Z,43.10
2018-04-12T12:53:56.106Z,43.20
2018-04-12T12:55:01.021Z,43.20
2018-04-12T12:56:05.759Z,43.10
2018-04-12T12:57:11.870Z,43.10
2018-04-12T12:58:16.808Z,43.20
2018-04-12T12:59:21.511Z,43.70
2018-04-12T13:00:26.955Z,43.20
2018-04-12T13:01:31.742Z,43.20
2018-04-12T13:02:36.712Z,43.20
2018-04-12T13:03:42.622Z,43.20
2018-04-12T13:04:47.258Z,43.10
2018-04-12T13:05:52.122Z,43.10
2018-04-12T13:06:56.852Z,43.20
2018-04-12T13:08:01.835Z,43.20
2018-04-12T13:09:06.677Z,43.10
2018-04-12T13:10:12.656Z,43.10
2018-04-12T13:11:17.408Z,43.20
2018-04-12T13:12:22.242Z,43.20
2018-04-12T13:13:27.292Z,43.10
2018-04-12T13:14:31.967Z,43.20
2018-04-12T13:15:36.710Z,43.10
2018-04-12T13:16:41.681Z,43.10
2018-04-12T13:17:46.710Z,43.10
2018-04-12T13:18:51.723Z,43.10
2018-04-12T13:19:56.631Z,43.10
2018-04-12T13:21:01.487Z,43.20
2018-04-12T13:22:06.456Z,43.10
2018-04-12T13:23:11.428Z,43.20
2018-04-12T13:24:17.275Z,43.20
2018-04-12T13:25:22.178Z,43.20
2018-04-12T13:26:27.395Z,43.10
2018-04-12T13:27:32.182Z,43.10
2018-04-12T13:28:36.902Z,43.20
2018-04-12T13:29:41.735Z,43.20
2018-04-12T13:30:46.584Z,43.20
2018-04-12T13:31:51.462Z,43.10
2018-04-12T13:32:56.254Z,43.20
2018-04-12T13:34:01.137Z,43.20
2018-04-12T13:35:05.942Z,43.20
2018-04-12T13:36:10.798Z,43.20
2018-04-12T13:37:15.742Z,43.10
2018-04-12T13:38:20.400Z,43.10
2018-04-12T13:39:25.274Z,43.20
2018-04-12T13:40:30.205Z,43.10
2018-04-12T13:41:35.098Z,43.20
2018-04-12T13:42:39.991Z,43.20
2018-04-12T13:43:45.010Z,43.20
2018-04-12T13:44:49.882Z,43.30
2018-04-12T13:45:54.723Z,43.30
2018-04-12T13:46:59.316Z,43.40
2018-04-12T13:48:04.044Z,43.40
2018-04-12T13:49:08.661Z,43.40
2018-04-12T13:50:13.477Z,43.60
2018-04-12T13:51:18.574Z,43.50
2018-04-12T13:52:23.519Z,43.60
2018-04-12T13:53:34.393Z,43.60
2018-04-12T13:54:39.824Z,43.80
2018-04-12T13:55:44.659Z,43.80